Terminal Aerodrome Forecast
Issued by NWS Corpus Christi, TX

Home | Current Version | Previous Version | Text Only | Print | Product List | Glossary On
Versions: 1 2 3 4 5 6 7 8 9 10 11 12 13 14 15 16 17 18 19 20
530
FTUS44 KCRP 181735
TAFVCT
TAF
KVCT 181735Z 1818/1918 25012KT P6SM FEW020 SCT030
      TEMPO 1818/1819 BKN030
     FM182000 34016G24KT P6SM FEW040
     FM190900 36011KT P6SM SKC
     FM191600 02013KT P6SM FEW250=

USA.gov is the U.S. government's official web portal to all federal, state and local government web resources and services.